createdAt,value
2018-12-16T22:46:10.309Z,1.5
2018-12-16T22:47:10.285Z,3.1
2018-12-16T22:48:10.213Z,4.7
2018-12-16T22:49:10.211Z,6.4
2018-12-16T22:50:10.229Z,7.7
2018-12-16T22:51:10.300Z,8.3
2018-12-16T22:52:10.223Z,9.6
2018-12-16T22:53:10.250Z,10.2
2018-12-16T22:54:10.286Z,10.9
2018-12-16T22:55:10.229Z,11.4
2018-12-16T22:56:10.239Z,12.1
2018-12-16T22:57:10.234Z,12.9
2018-12-16T22:58:10.228Z,14
2018-12-16T22:59:10.282Z,14.6
2018-12-16T23:00:10.207Z,15
2018-12-16T23:01:10.249Z,16
2018-12-16T23:02:10.225Z,16.1
2018-12-16T23:03:10.222Z,16.3
2018-12-16T23:04:10.222Z,16.4
2018-12-16T23:05:10.217Z,17.1
2018-12-16T23:06:10.316Z,17.4
2018-12-16T23:07:10.222Z,18.1
2018-12-16T23:08:10.244Z,18.3
2018-12-16T23:09:10.235Z,19
2018-12-16T23:10:10.228Z,19.1
2018-12-16T23:11:10.309Z,18.8
2018-12-16T23:12:10.230Z,19.3
2018-12-16T23:13:10.216Z,19.4
2018-12-16T23:14:10.230Z,19.4
2018-12-16T23:15:10.288Z,20
2018-12-16T23:16:10.222Z,20.3
2018-12-16T23:17:10.240Z,20.8
2018-12-16T23:18:10.208Z,21.1
2018-12-16T23:19:10.216Z,20.7
2018-12-16T23:20:10.275Z,20.7
2018-12-16T23:21:11.292Z,20.7
2018-12-16T23:22:10.215Z,20.6
2018-12-16T23:23:10.210Z,20.6
2018-12-16T23:24:10.304Z,20.4
2018-12-16T23:25:10.279Z,20
2018-12-16T23:26:10.206Z,19.7
2018-12-16T23:27:10.240Z,19.6
2018-12-16T23:28:10.290Z,19.1
2018-12-16T23:29:10.223Z,18.5
2018-12-16T23:30:10.288Z,17.7
2018-12-16T23:31:10.219Z,18
2018-12-16T23:32:10.206Z,18.4
2018-12-16T23:33:10.214Z,18.2
2018-12-16T23:34:10.211Z,18.2
2018-12-16T23:35:10.304Z,18.7
2018-12-16T23:36:10.312Z,18.9
2018-12-16T23:37:10.217Z,19
2018-12-16T23:38:10.208Z,19
2018-12-16T23:39:10.220Z,19.2
2018-12-16T23:40:10.227Z,19.2
2018-12-16T23:41:10.267Z,18.9
2018-12-16T23:42:10.311Z,19.5
2018-12-16T23:43:10.192Z,19.2
2018-12-16T23:44:10.200Z,19.8
2018-12-16T23:45:10.209Z,20
2018-12-16T23:46:10.222Z,20.3
2018-12-16T23:47:10.272Z,20.6
2018-12-16T23:48:10.202Z,20.7
2018-12-16T23:49:10.211Z,20.8
2018-12-16T23:50:10.199Z,20.8
2018-12-16T23:51:10.262Z,20.8
2018-12-16T23:52:10.295Z,20.9
2018-12-16T23:53:10.219Z,21.3
2018-12-16T23:54:10.198Z,21.4
2018-12-16T23:55:10.207Z,21.4
2018-12-16T23:56:10.197Z,21.6
2018-12-16T23:57:10.267Z,21.5
2018-12-16T23:58:10.207Z,21.9
2018-12-16T23:59:10.207Z,21.7
